Time;durP1;ratioP1;P1;durP2;ratioP2;P2;SDS_P1;SDS_P2;PMS_P1;PMS_P2;Temp;Humidity;BMP_temperature;BMP_pressure;BME280_temperature;BME280_humidity;BME280_pressure;Samples;Min_cycle;Max_cycle;Signal;HPM_P1;HPM_P2
2022/08/18 04:02:34;;;;;;;;;;;;;;;20.94;69.98;98447.97;2602836;47;20093;-66
2022/08/18 04:05:03;;;;;;;;;;;;;;;21.07;69.62;98449.31;2619140;54;19950;-65
2022/08/18 04:07:33;;;;;;;;;;;;;;;21.18;68.76;98453.56;2620731;54;19953;-65
2022/08/18 04:10:03;;;;;;;;;;;;;;;21.22;68.70;98451.16;2622379;39;20337;-66
2022/08/18 04:12:32;;;;;;;;;;;;;;;21.26;68.74;98455.72;2622073;39;20377;-66
2022/08/18 04:15:02;;;;;;;;;;;;;;;21.23;68.47;98453.59;2621799;54;19994;-64
2022/08/18 04:17:34;;;;;;;;;;;;;;;21.22;68.59;98456.53;2622678;54;19974;-65
2022/08/18 04:20:23;;;;;;;;;;;;;;;21.16;68.79;98466.50;2624919;54;19946;-65
2022/08/18 04:22:53;;;;;;;;;;;;;;;21.03;70.42;98470.53;2625427;39;20330;-65
2022/08/18 04:25:22;;;;;;;;;;;;;;;21.02;70.35;98474.31;2619263;47;19946;-66
2022/08/18 04:27:53;;;;;;;;;;;;;;;21.08;70.50;98468.91;2617994;54;19947;-63
2022/08/18 04:30:23;;;;;;;;;;;;;;;21.09;70.54;98468.63;2618275;54;19970;-63
2022/08/18 04:32:55;;;;;;;;;;;;;;;21.06;70.29;98471.84;2618073;54;19947;-64
2022/08/18 04:35:24;;;;;;;;;;;;;;;21.05;70.38;98469.44;2618231;54;19953;-64
2022/08/18 04:37:54;;;;;;;;;;;;;;;21.01;70.28;98482.59;2618091;54;19951;-65
2022/08/18 04:40:25;;;;;;;;;;;;;;;21.05;70.33;98474.81;2618597;39;20341;-65
2022/08/18 04:42:56;;;;;;;;;;;;;;;21.12;70.74;98483.44;2618259;54;19939;-65
2022/08/18 04:45:25;;;;;;;;;;;;;;;21.04;70.80;98487.47;2618594;54;19946;-65
2022/08/18 04:47:57;;;;;;;;;;;;;;;20.96;71.30;98488.00;2621673;54;19947;-65
2022/08/18 04:50:26;;;;;;;;;;;;;;;20.98;71.48;98486.66;2618418;54;19946;-65
2022/08/18 04:55:40;;;;;;;;;;;;;;;21.07;70.88;98505.75;2618304;54;19946;-65
2022/08/18 04:58:09;;;;;;;;;;;;;;;21.02;70.90;98503.84;2618130;54;19953;-67
2022/08/18 05:00:38;;;;;;;;;;;;;;;20.97;71.65;98498.47;2618668;39;20640;-65
2022/08/18 05:03:10;;;;;;;;;;;;;;;20.96;71.49;98493.38;2618065;54;19939;-65
2022/08/18 05:05:40;;;;;;;;;;;;;;;20.94;71.82;98501.69;2618038;54;19939;-65
2022/08/18 05:08:09;;;;;;;;;;;;;;;20.89;71.74;98500.88;2617648;54;19946;-64
2022/08/18 05:10:40;;;;;;;;;;;;;;;20.76;72.05;98503.00;2618109;54;19958;-64
2022/08/18 05:13:09;;;;;;;;;;;;;;;20.77;72.11;98520.72;2618203;54;19946;-64
2022/08/18 05:15:39;;;;;;;;;;;;;;;20.86;72.18;98521.03;2618531;39;20333;-64
2022/08/18 05:18:31;;;;;;;;;;;;;;;20.92;72.04;98521.84;2617843;54;19947;-64
2022/08/18 05:21:02;;;;;;;;;;;;;;;20.99;72.40;98522.41;2618057;54;19958;-63
2022/08/18 05:23:34;;;;;;;;;;;;;;;21.05;72.07;98517.81;2619031;31;20399;-65
2022/08/18 05:26:05;;;;;;;;;;;;;;;21.01;72.12;98536.34;2619913;54;19954;-64
2022/08/18 05:28:36;;;;;;;;;;;;;;;21.07;71.75;98534.50;2621042;54;19964;-63
2022/08/18 05:31:10;;;;;;;;;;;;;;;21.13;71.70;98541.47;2618223;54;19939;-63
2022/08/18 05:33:45;;;;;;;;;;;;;;;21.17;71.45;98532.59;2617991;54;19954;-64
2022/08/18 05:36:22;;;;;;;;;;;;;;;21.18;71.60;98531.53;2618258;54;19946;-64
2022/08/18 05:38:56;;;;;;;;;;;;;;;21.21;71.75;98532.88;2617969;47;19966;-64
2022/08/18 05:41:28;;;;;;;;;;;;;;;21.20;71.34;98525.91;2618135;54;19946;-64
2022/08/18 05:43:58;;;;;;;;;;;;;;;21.14;71.84;98530.44;2618067;54;19939;-65
2022/08/18 05:46:39;;;;;;;;;;;;;;;21.15;71.57;98532.09;2617215;47;19947;-65
2022/08/18 05:49:12;;;;;;;;;;;;;;;21.20;71.44;98528.59;2617727;54;19950;-63
2022/08/18 05:51:43;;;;;;;;;;;;;;;21.15;71.43;98524.03;2617952;54;19946;-64
2022/08/18 05:56:58;;;;;;;;;;;;;;;21.12;72.37;98524.53;2617808;54;19939;-64
2022/08/18 05:59:35;;;;;;;;;;;;;;;21.19;71.89;98518.91;2618157;54;20027;-64
2022/08/18 06:02:12;;;;;;;;;;;;;;;21.22;72.13;98518.34;2617911;54;19946;-63
2022/08/18 06:04:48;;;;;;;;;;;;;;;21.20;71.74;98513.25;2618095;54;20029;-63
2022/08/18 06:07:18;;;;;;;;;;;;;;;21.24;71.19;98521.59;2617512;39;20339;-64
2022/08/18 06:09:51;;;;;;;;;;;;;;;20.84;71.23;98519.69;2617957;54;19945;-63
2022/08/18 06:12:27;;;;;;;;;;;;;;;20.78;71.58;98518.88;2617916;54;19939;-62
2022/08/18 06:15:03;;;;;;;;;;;;;;;20.78;71.83;98510.81;2618334;39;19994;-63
2022/08/18 06:17:43;;;;;;;;;;;;;;;20.93;71.88;98518.06;2618549;31;20457;-63
2022/08/18 06:20:22;;;;;;;;;;;;;;;20.96;70.95;98522.91;2618553;39;20345;-64
2022/08/18 06:22:56;;;;;;;;;;;;;;;20.82;71.34;98524.50;2617861;54;19946;-64
2022/08/18 06:25:29;;;;;;;;;;;;;;;20.81;71.56;98525.56;2618066;54;19957;-62
2022/08/18 06:28:03;;;;;;;;;;;;;;;20.88;71.44;98518.06;2617133;47;20465;-62
2022/08/18 06:30:41;;;;;;;;;;;;;;;20.99;70.86;98525.06;2618025;54;19993;-62
2022/08/18 06:33:14;;;;;;;;;;;;;;;21.10;70.33;98517.81;2617853;54;19953;-63
2022/08/18 06:35:48;;;;;;;;;;;;;;;21.01;70.63;98523.72;2617908;54;19946;-63
2022/08/18 06:38:42;;;;;;;;;;;;;;;20.90;71.29;98526.66;2617898;31;20425;-65
2022/08/18 06:41:18;;;;;;;;;;;;;;;20.91;70.95;98533.66;2617408;54;19951;-64
2022/08/18 06:44:09;;;;;;;;;;;;;;;21.00;70.73;98534.75;2618316;54;20022;-64
2022/08/18 06:46:42;;;;;;;;;;;;;;;20.92;71.11;98544.13;2623640;54;19947;-64
2022/08/18 06:49:14;;;;;;;;;;;;;;;21.00;71.14;98545.50;2624313;54;19958;-64
2022/08/18 06:51:46;;;;;;;;;;;;;;;21.07;70.59;98548.75;2623877;54;19938;-65
2022/08/18 06:54:28;;;;;;;;;;;;;;;21.02;70.84;98546.84;2619103;54;19946;-64
2022/08/18 06:56:58;;;;;;;;;;;;;;;20.87;70.84;98543.34;2618536;54;19939;-63
2022/08/18 06:59:28;;;;;;;;;;;;;;;20.84;70.65;98543.84;2617018;47;19946;-64
2022/08/18 07:02:01;;;;;;;;;;;;;;;20.85;70.78;98546.25;2617817;54;19938;-63
2022/08/18 07:04:36;;;;;;;;;;;;;;;20.91;70.76;98541.72;2617794;54;19953;-64
2022/08/18 07:07:19;;;;;;;;;;;;;;;20.96;70.69;98549.78;2617791;54;19939;-63
2022/08/18 07:09:49;;;;;;;;;;;;;;;20.96;71.27;98541.72;2617881;54;19982;-65
2022/08/18 07:12:23;;;;;;;;;;;;;;;20.97;71.21;98546.81;2617937;54;19953;-64
2022/08/18 07:15:01;;;;;;;;;;;;;;;20.91;71.01;98541.72;2617657;54;19945;-66
2022/08/18 07:17:32;;;;;;;;;;;;;;;20.90;71.46;98545.47;2617313;54;19950;-64
2022/08/18 07:20:20;;;;;;;;;;;;;;;20.92;71.79;98546.03;2617600;54;19951;-66
2022/08/18 07:22:57;;;;;;;;;;;;;;;21.00;71.30;98553.56;2617206;54;19953;-65
2022/08/18 07:25:29;;;;;;;;;;;;;;;20.99;71.72;98549.25;2617724;54;19946;-66
2022/08/18 07:28:00;;;;;;;;;;;;;;;20.94;71.31;98552.75;2617879;39;20350;-66
2022/08/18 07:30:32;;;;;;;;;;;;;;;20.95;71.41;98553.56;2617794;54;19946;-64
2022/08/18 07:33:06;;;;;;;;;;;;;;;20.92;71.66;98551.41;2617941;54;20024;-63
2022/08/18 07:35:39;;;;;;;;;;;;;;;20.94;71.92;98566.19;2617749;54;19946;-64
2022/08/18 07:38:16;;;;;;;;;;;;;;;20.90;71.99;98565.09;2618004;39;20327;-65
2022/08/18 07:41:07;;;;;;;;;;;;;;;21.02;72.24;98564.84;2619043;46;19989;-64
2022/08/18 07:43:42;;;;;;;;;;;;;;;21.12;72.31;98578.31;2619166;54;19939;-63
2022/08/18 07:46:14;;;;;;;;;;;;;;;21.15;71.56;98568.91;2620740;54;19946;-64
2022/08/18 07:48:43;;;;;;;;;;;;;;;21.08;71.90;98581.78;2618570;54;19939;-63
2022/08/18 07:51:20;;;;;;;;;;;;;;;21.06;72.08;98573.16;2617734;54;20029;-64
2022/08/18 07:53:58;;;;;;;;;;;;;;;21.10;71.87;98576.94;2618089;54;19969;-65
2022/08/18 07:56:37;;;;;;;;;;;;;;;21.06;72.13;98573.97;2618018;39;20381;-65
2022/08/18 07:59:12;;;;;;;;;;;;;;;21.12;72.01;98572.13;2618636;54;19951;-64
2022/08/18 08:01:45;;;;;;;;;;;;;;;21.19;72.12;98576.16;2618550;54;19938;-64
2022/08/18 08:04:17;;;;;;;;;;;;;;;21.34;71.54;98567.31;2618298;54;19994;-63
2022/08/18 08:06:56;;;;;;;;;;;;;;;21.41;71.09;98567.88;2617842;54;19966;-65
2022/08/18 08:09:54;;;;;;;;;;;;;;;21.51;71.21;98561.66;2618679;54;19947;-65
2022/08/18 08:12:29;;;;;;;;;;;;;;;21.36;70.81;98564.38;2618755;54;19957;-65
2022/08/18 08:15:06;;;;;;;;;;;;;;;21.37;71.51;98558.72;2618181;46;19950;-65
2022/08/18 08:17:42;;;;;;;;;;;;;;;21.35;71.78;98560.06;2618259;54;19946;-65
2022/08/18 08:20:17;;;;;;;;;;;;;;;21.46;71.69;98564.38;2617785;54;19951;-65
2022/08/18 08:22:53;;;;;;;;;;;;;;;21.52;71.69;98571.38;2618486;54;19938;-65
2022/08/18 08:25:26;;;;;;;;;;;;;;;21.51;71.47;98567.03;2618517;54;19962;-64
2022/08/18 08:28:21;;;;;;;;;;;;;;;21.60;70.59;98570.84;2617691;54;19973;-64
2022/08/18 08:30:57;;;;;;;;;;;;;;;21.52;70.81;98571.38;2618430;54;19943;-67
2022/08/18 08:33:48;;;;;;;;;;;;;;;21.37;70.35;98564.09;2618303;54;19954;-66
2022/08/18 08:36:21;;;;;;;;;;;;;;;21.39;70.84;98566.50;2618230;54;19947;-65
2022/08/18 08:38:53;;;;;;;;;;;;;;;21.39;70.55;98563.81;2618146;47;19962;-65
2022/08/18 08:41:30;;;;;;;;;;;;;;;21.44;71.02;98567.34;2618809;54;19939;-65
2022/08/18 08:44:04;;;;;;;;;;;;;;;21.44;70.90;98574.59;2619275;54;19938;-64
2022/08/18 08:46:38;;;;;;;;;;;;;;;21.51;70.87;98569.75;2621274;54;19939;-64
2022/08/18 08:49:14;;;;;;;;;;;;;;;21.48;71.67;98579.16;2618675;54;19953;-65
2022/08/18 08:51:46;;;;;;;;;;;;;;;21.58;71.03;98585.63;2618590;54;19945;-64
2022/08/18 08:54:18;;;;;;;;;;;;;;;21.57;70.58;98584.81;2618571;54;19945;-65
2022/08/18 08:56:51;;;;;;;;;;;;;;;21.57;70.43;98592.88;2618189;54;19958;-65
2022/08/18 08:59:23;;;;;;;;;;;;;;;21.47;70.69;98607.16;2618739;39;20072;-64
2022/08/18 09:01:57;;;;;;;;;;;;;;;21.38;71.19;98610.63;2618479;54;20430;-64
2022/08/18 09:04:34;;;;;;;;;;;;;;;21.35;71.27;98611.97;2618160;54;19946;-64
2022/08/18 09:07:14;;;;;;;;;;;;;;;21.37;71.42;98614.38;2617936;54;19946;-63
2022/08/18 09:09:51;;;;;;;;;;;;;;;21.50;71.74;98605.78;2618368;54;19947;-65
2022/08/18 09:12:35;;;;;;;;;;;;;;;21.59;70.90;98593.41;2617908;54;19943;-64
2022/08/18 09:15:19;;;;;;;;;;;;;;;21.72;71.09;98606.34;2623300;54;19938;-64
2022/08/18 09:18:03;;;;;;;;;;;;;;;21.74;71.11;98604.16;2623444;54;19951;-64
2022/08/18 09:20:42;;;;;;;;;;;;;;;21.73;70.70;98607.94;2622928;54;19946;-64
2022/08/18 09:23:19;;;;;;;;;;;;;;;21.59;70.83;98609.53;2618962;39;20600;-64
2022/08/18 09:25:51;;;;;;;;;;;;;;;21.54;71.23;98612.25;2618330;54;19951;-63
2022/08/18 09:28:24;;;;;;;;;;;;;;;21.48;71.32;98619.50;2618333;54;19946;-63
2022/08/18 09:31:15;;;;;;;;;;;;;;;21.61;71.07;98620.84;2618180;54;19947;-64
2022/08/18 09:33:57;;;;;;;;;;;;;;;21.80;70.94;98609.53;2618129;54;19947;-63
2022/08/18 09:36:39;;;;;;;;;;;;;;;21.77;71.12;98606.31;2618287;54;19946;-63
2022/08/18 09:42:05;;;;;;;;;;;;;;;21.69;70.53;98598.78;2619472;54;19946;-63
2022/08/18 09:44:50;;;;;;;;;;;;;;;21.87;70.57;98602.00;2618875;54;19957;-63
2022/08/18 09:47:36;;;;;;;;;;;;;;;21.89;69.91;98597.97;2619175;52;19947;-64
2022/08/18 09:50:41;;;;;;;;;;;;;;;21.71;70.33;98595.81;2619450;54;19939;-63
2022/08/18 09:53:35;;;;;;;;;;;;;;;21.63;70.88;98586.41;2619433;54;19946;-64
2022/08/18 09:56:06;;;;;;;;;;;;;;;21.70;70.89;98586.16;2620313;46;19962;-65
2022/08/18 09:58:51;;;;;;;;;;;;;;;21.78;70.73;98588.28;2619122;39;20361;-64
2022/08/18 10:01:33;;;;;;;;;;;;;;;21.86;70.80;98586.94;2619840;54;19947;-64
2022/08/18 10:04:19;;;;;;;;;;;;;;;21.88;70.15;98576.69;2618365;39;20624;-63
2022/08/18 10:07:15;;;;;;;;;;;;;;;21.72;70.14;98584.00;2618333;54;19977;-63
2022/08/18 10:09:51;;;;;;;;;;;;;;;21.78;70.90;98588.28;2618341;54;19946;-63
2022/08/18 10:12:35;;;;;;;;;;;;;;;21.87;70.78;98589.34;2618116;54;19950;-63
2022/08/18 10:15:21;;;;;;;;;;;;;;;21.87;70.66;98593.94;2617935;54;19943;-63
2022/08/18 10:18:13;;;;;;;;;;;;;;;21.92;70.19;98594.75;2618801;54;19945;-66
2022/08/18 10:20:50;;;;;;;;;;;;;;;21.80;69.95;98585.31;2619297;54;19969;-67
2022/08/18 10:23:35;;;;;;;;;;;;;;;21.73;70.42;98583.72;2618452;54;19946;-66
2022/08/18 10:26:31;;;;;;;;;;;;;;;21.82;71.04;98588.56;2618541;39;20346;-66
2022/08/18 10:29:04;;;;;;;;;;;;;;;21.82;69.91;98580.50;2618176;54;19938;-65
2022/08/18 10:31:54;;;;;;;;;;;;;;;21.63;70.11;98575.66;2617194;46;19947;-65
2022/08/18 10:34:39;;;;;;;;;;;;;;;21.60;70.84;98576.22;2618187;54;19958;-64
2022/08/18 10:37:22;;;;;;;;;;;;;;;21.71;71.21;98558.97;2618128;54;19950;-66
2022/08/18 10:39:56;;;;;;;;;;;;;;;21.81;70.94;98571.63;2618269;54;19953;-68
2022/08/18 10:42:28;;;;;;;;;;;;;;;21.92;70.81;98572.38;2618384;54;20041;-65
2022/08/18 10:45:07;;;;;;;;;;;;;;;21.95;70.64;98572.66;2618242;54;19958;-66
2022/08/18 10:47:37;;;;;;;;;;;;;;;21.97;70.58;98567.81;2617322;47;19939;-65
2022/08/18 10:50:09;;;;;;;;;;;;;;;22.13;70.59;98571.31;2618208;54;19939;-65
2022/08/18 10:52:52;;;;;;;;;;;;;;;22.28;70.56;98577.72;2618643;54;19939;-65
2022/08/18 10:55:49;;;;;;;;;;;;;;;22.27;69.41;98578.81;2618288;54;19950;-63
2022/08/18 10:58:49;;;;;;;;;;;;;;;22.24;69.01;98580.94;2617859;54;20025;-65
2022/08/18 11:01:28;;;;;;;;;;;;;;;22.08;68.97;98573.97;2616637;54;19946;-64
2022/08/18 11:04:06;;;;;;;;;;;;;;;22.07;69.00;98550.03;2618483;39;20456;-65
2022/08/18 11:06:59;;;;;;;;;;;;;;;22.09;69.11;98518.28;2617646;54;19939;-64
2022/08/18 11:09:30;;;;;;;;;;;;;;;22.13;69.82;98520.16;2617894;47;19964;-65
2022/08/18 11:12:01;;;;;;;;;;;;;;;22.30;69.87;98541.38;2618364;54;19938;-65
2022/08/18 11:14:44;;;;;;;;;;;;;;;22.50;70.20;98554.75;2617938;54;19954;-65
2022/08/18 11:17:27;;;;;;;;;;;;;;;22.43;68.50;98565.00;2619523;54;19939;-66
2022/08/18 11:19:58;;;;;;;;;;;;;;;22.34;68.54;98547.81;2618699;47;19939;-66
2022/08/18 11:22:28;;;;;;;;;;;;;;;22.23;69.63;98547.03;2617899;54;19963;-65
2022/08/18 11:25:21;;;;;;;;;;;;;;;22.06;69.36;98537.66;2618197;54;19939;-68
2022/08/18 11:27:50;;;;;;;;;;;;;;;22.20;69.42;98546.78;2617912;47;20022;-67
2022/08/18 11:30:21;;;;;;;;;;;;;;;22.31;69.57;98551.06;2619175;54;19954;-64
2022/08/18 11:33:02;;;;;;;;;;;;;;;22.42;69.75;98541.06;2619205;54;19957;-67
2022/08/18 11:35:34;;;;;;;;;;;;;;;22.52;69.60;98542.88;2618719;54;19938;-66
2022/08/18 11:38:05;;;;;;;;;;;;;;;22.57;69.02;98550.94;2618973;54;19954;-66
2022/08/18 11:40:42;;;;;;;;;;;;;;;22.63;68.30;98547.16;2619298;54;19981;-67
2022/08/18 11:43:33;;;;;;;;;;;;;;;22.52;68.38;98542.88;2618899;54;19950;-66
2022/08/18 11:46:15;;;;;;;;;;;;;;;22.37;68.33;98543.75;2618783;54;19947;-63
2022/08/18 11:48:55;;;;;;;;;;;;;;;22.46;68.22;98537.53;2618384;54;20450;-63
2022/08/18 11:51:26;;;;;;;;;;;;;;;22.52;68.48;98532.91;2618613;51;19950;-65
2022/08/18 11:53:58;;;;;;;;;;;;;;;22.33;68.02;98532.75;2618612;47;19939;-65
2022/08/18 11:56:29;;;;;;;;;;;;;;;22.36;68.65;98534.06;2619378;54;19947;-66
2022/08/18 11:59:07;;;;;;;;;;;;;;;22.42;69.04;98530.28;2619134;54;19958;-66
2022/08/18 12:01:41;;;;;;;;;;;;;;;22.50;68.74;98524.31;2619275;54;19949;-66
2022/08/18 12:04:17;;;;;;;;;;;;;;;22.58;68.79;98523.75;2618953;54;19938;-67
2022/08/18 12:06:58;;;;;;;;;;;;;;;22.66;68.57;98525.06;2618237;54;19957;-67
2022/08/18 12:09:33;;;;;;;;;;;;;;;22.87;68.03;98521.16;2618947;54;20046;-67
2022/08/18 12:12:24;;;;;;;;;;;;;;;23.01;67.27;98515.16;2618896;54;20681;-67
2022/08/18 12:14:58;;;;;;;;;;;;;;;23.08;67.32;98518.34;2618981;54;19950;-66
2022/08/18 12:17:46;;;;;;;;;;;;;;;23.17;66.61;98508.56;2618927;54;19954;-66
2022/08/18 12:20:24;;;;;;;;;;;;;;;23.12;67.34;98520.19;2619042;54;19947;-66
2022/08/18 12:22:57;;;;;;;;;;;;;;;23.18;67.09;98523.63;2619227;54;19946;-66
2022/08/18 12:25:26;;;;;;;;;;;;;;;23.28;66.64;98522.78;2619124;54;19939;-65
2022/08/18 12:27:56;;;;;;;;;;;;;;;23.32;66.12;98519.22;2618819;54;19945;-65
2022/08/18 12:30:25;;;;;;;;;;;;;;;23.28;66.70;98525.47;2618800;54;20442;-65
2022/08/18 12:32:54;;;;;;;;;;;;;;;23.34;65.73;98521.63;2619265;54;19943;-65
2022/08/18 12:35:43;;;;;;;;;;;;;;;23.33;66.91;98525.41;2619112;54;19961;-66
2022/08/18 12:38:16;;;;;;;;;;;;;;;23.50;66.53;98525.81;2618881;54;19950;-66
2022/08/18 12:40:46;;;;;;;;;;;;;;;23.61;65.59;98524.63;2619341;39;20363;-65
2022/08/18 12:43:15;;;;;;;;;;;;;;;23.75;65.62;98522.09;2619569;54;19947;-66
2022/08/18 12:45:45;;;;;;;;;;;;;;;23.77;65.51;98516.41;2619176;54;19990;-65
2022/08/18 12:48:14;;;;;;;;;;;;;;;23.77;65.20;98513.72;2619199;54;19946;-65
2022/08/18 12:50:46;;;;;;;;;;;;;;;23.88;64.59;98504.41;2619269;54;19954;-64
2022/08/18 12:53:26;;;;;;;;;;;;;;;24.02;64.54;98502.63;2618914;54;19953;-65
2022/08/18 12:56:19;;;;;;;;;;;;;;;24.12;63.69;98499.00;2617848;54;19973;-67
2022/08/18 12:58:49;;;;;;;;;;;;;;;24.14;63.51;98484.13;2617693;54;19947;-65
2022/08/18 13:01:19;;;;;;;;;;;;;;;24.04;62.95;98478.03;2617392;54;19969;-65
2022/08/18 13:03:54;;;;;;;;;;;;;;;24.17;62.60;98480.84;2618144;54;19961;-65
2022/08/18 13:06:46;;;;;;;;;;;;;;;24.20;61.37;98484.84;2617334;54;19938;-65
2022/08/18 13:09:31;;;;;;;;;;;;;;;24.40;61.52;98481.94;2617754;54;19957;-66
2022/08/18 13:12:17;;;;;;;;;;;;;;;24.58;61.87;98474.94;2617920;54;19948;-65
2022/08/18 13:14:48;;;;;;;;;;;;;;;24.85;60.57;98476.16;2618254;54;20435;-66
2022/08/18 13:17:19;;;;;;;;;;;;;;;24.89;61.50;98480.69;2618070;54;19953;-66
2022/08/18 13:20:03;;;;;;;;;;;;;;;24.77;60.17;98466.81;2617715;54;19946;-65
2022/08/18 13:22:36;;;;;;;;;;;;;;;24.85;60.16;98470.75;2618131;54;19939;-66
2022/08/18 13:25:06;;;;;;;;;;;;;;;24.89;60.02;98469.06;2618403;54;19946;-65
2022/08/18 13:27:36;;;;;;;;;;;;;;;25.09;60.41;98468.78;2617383;54;19946;-65
2022/08/18 13:30:08;;;;;;;;;;;;;;;25.02;58.63;98475.63;2617853;47;19950;-65
2022/08/18 13:32:57;;;;;;;;;;;;;;;24.86;58.88;98461.53;2617630;47;20034;-65
2022/08/18 13:35:33;;;;;;;;;;;;;;;24.84;59.09;98458.34;2618114;54;20456;-66
2022/08/18 13:38:17;;;;;;;;;;;;;;;24.83;60.12;98459.44;2617856;47;19946;-64
2022/08/18 13:40:55;;;;;;;;;;;;;;;25.12;59.88;98462.78;2617794;54;19973;-64
2022/08/18 13:43:29;;;;;;;;;;;;;;;25.35;57.80;98450.22;2617483;47;19939;-63
2022/08/18 13:45:58;;;;;;;;;;;;;;;25.31;57.62;98443.81;2618096;54;19939;-65
2022/08/18 13:48:30;;;;;;;;;;;;;;;25.28;57.74;98438.19;2618060;54;19942;-65
2022/08/18 13:51:01;;;;;;;;;;;;;;;25.25;57.72;98439.56;2617925;54;19947;-66
2022/08/18 13:53:33;;;;;;;;;;;;;;;25.38;58.69;98435.28;2617915;54;19979;-65
2022/08/18 13:56:19;;;;;;;;;;;;;;;25.73;57.01;98441.94;2617708;54;19977;-66
2022/08/18 13:58:59;;;;;;;;;;;;;;;25.81;56.29;98441.28;2617258;47;19950;-64
2022/08/18 14:01:33;;;;;;;;;;;;;;;25.85;56.80;98444.19;2618188;54;19945;-65
2022/08/18 14:04:20;;;;;;;;;;;;;;;25.94;56.99;98440.47;2617964;54;19953;-65
2022/08/18 14:06:51;;;;;;;;;;;;;;;26.17;56.10;98432.41;2617907;54;19939;-65
2022/08/18 14:09:28;;;;;;;;;;;;;;;26.12;54.73;98433.31;2618520;39;20331;-65
2022/08/18 14:12:08;;;;;;;;;;;;;;;26.03;54.78;98424.28;2618135;54;19947;-64
2022/08/18 14:14:51;;;;;;;;;;;;;;;26.00;54.92;98426.81;2617346;47;19946;-65
2022/08/18 14:17:20;;;;;;;;;;;;;;;26.01;54.30;98429.22;2617847;39;20312;-66
2022/08/18 14:28:08;;;;;;;;;;;;;;;26.14;53.75;98428.41;2617832;54;19938;-65
2022/08/18 14:30:40;;;;;;;;;;;;;;;26.13;53.35;98434.94;2617999;54;19946;-65
2022/08/18 14:33:21;;;;;;;;;;;;;;;26.11;53.52;98428.19;2617757;54;19953;-64
2022/08/18 14:36:11;;;;;;;;;;;;;;;26.05;53.66;98422.09;2617388;54;19946;-65
2022/08/18 14:38:40;;;;;;;;;;;;;;;26.07;53.43;98416.38;2617557;54;19947;-64
2022/08/18 14:41:14;;;;;;;;;;;;;;;26.19;53.92;98420.16;2618614;54;19939;-64
2022/08/18 14:43:45;;;;;;;;;;;;;;;26.30;52.76;98418.03;2619908;54;19945;-65
2022/08/18 14:46:34;;;;;;;;;;;;;;;26.34;52.68;98421.75;2620940;54;19977;-65
2022/08/18 14:49:04;;;;;;;;;;;;;;;26.47;52.76;98420.13;2620803;54;19973;-66
2022/08/18 14:51:34;;;;;;;;;;;;;;;26.43;51.20;98422.59;2621134;54;19951;-65
2022/08/18 14:54:03;;;;;;;;;;;;;;;26.34;51.32;98423.66;2621374;54;19958;-66
2022/08/18 14:56:36;;;;;;;;;;;;;;;26.31;51.78;98416.13;2619327;47;19939;-65
2022/08/18 14:59:07;;;;;;;;;;;;;;;26.07;51.75;98424.50;2617880;54;19946;-64
2022/08/18 15:01:38;;;;;;;;;;;;;;;26.00;52.50;98422.19;2618258;47;20521;-66
2022/08/18 15:04:13;;;;;;;;;;;;;;;26.26;52.04;98419.75;2618460;54;19969;-65
2022/08/18 15:06:47;;;;;;;;;;;;;;;26.25;51.76;98420.03;2617022;47;19946;-65
2022/08/18 15:09:25;;;;;;;;;;;;;;;26.39;52.59;98416.19;2617125;46;19982;-65
2022/08/18 15:11:59;;;;;;;;;;;;;;;26.54;51.26;98414.28;2617027;54;19973;-65
2022/08/18 15:14:30;;;;;;;;;;;;;;;26.43;51.36;98419.09;2617645;54;19938;-65
2022/08/18 15:17:01;;;;;;;;;;;;;;;26.46;51.28;98407.69;2617518;54;19947;-66
2022/08/18 15:19:30;;;;;;;;;;;;;;;26.49;49.24;98406.25;2617927;54;19958;-65
2022/08/18 15:27:48;;;;;;;;;;;;;;;26.74;47.89;98411.09;2618313;54;20067;-65
2022/08/18 15:30:21;;;;;;;;;;;;;;;26.78;47.72;98413.97;2618439;54;20086;-66
2022/08/18 15:32:51;;;;;;;;;;;;;;;26.96;47.46;98409.47;2616945;54;19951;-65
2022/08/18 15:35:21;;;;;;;;;;;;;;;27.12;45.56;98421.56;2616762;54;19979;-65
2022/08/18 15:37:50;;;;;;;;;;;;;;;26.97;46.08;98424.63;2616775;54;19950;-66
2022/08/18 15:40:21;;;;;;;;;;;;;;;26.91;46.30;98419.34;2618049;39;20353;-65
2022/08/18 15:43:07;;;;;;;;;;;;;;;26.91;46.30;98429.41;2617460;39;20342;-65
2022/08/18 15:45:40;;;;;;;;;;;;;;;26.81;46.64;98424.19;2618002;39;20326;-65
2022/08/18 15:48:25;;;;;;;;;;;;;;;26.73;45.68;98423.03;2616352;54;19995;-65
2022/08/18 15:50:55;;;;;;;;;;;;;;;26.65;45.77;98421.84;2617012;54;19939;-65
2022/08/18 15:53:26;;;;;;;;;;;;;;;26.57;45.72;98413.66;2617439;39;20333;-66
2022/08/18 15:55:58;;;;;;;;;;;;;;;26.51;46.30;98410.28;2617436;54;19947;-65
2022/08/18 15:58:35;;;;;;;;;;;;;;;26.57;45.96;98414.44;2617378;54;19946;-65
2022/08/18 16:01:10;;;;;;;;;;;;;;;26.66;45.85;98403.69;2617166;54;19954;-65
2022/08/18 16:03:59;;;;;;;;;;;;;;;26.60;45.36;98397.56;2617268;54;19989;-65
2022/08/18 16:06:30;;;;;;;;;;;;;;;26.61;46.57;98391.03;2616054;47;20578;-64
2022/08/18 16:09:01;;;;;;;;;;;;;;;26.73;45.83;98393.22;2616826;54;19954;-64
2022/08/18 16:11:30;;;;;;;;;;;;;;;26.74;45.66;98394.00;2617421;54;19954;-65
2022/08/18 16:14:02;;;;;;;;;;;;;;;26.62;44.93;98392.66;2617430;54;19950;-64
2022/08/18 16:16:31;;;;;;;;;;;;;;;26.67;45.09;98395.25;2617930;54;19954;-64
2022/08/18 16:19:05;;;;;;;;;;;;;;;26.75;44.88;98390.19;2618182;54;19947;-65
2022/08/18 16:21:38;;;;;;;;;;;;;;;26.87;45.58;98388.53;2617273;54;20034;-66
2022/08/18 16:24:09;;;;;;;;;;;;;;;27.01;45.29;98390.34;2618896;54;19947;-65
2022/08/18 16:26:38;;;;;;;;;;;;;;;27.02;43.77;98391.94;2618841;54;19947;-65
2022/08/18 16:29:11;;;;;;;;;;;;;;;26.78;44.12;98384.97;2619012;54;19938;-66
2022/08/18 16:31:41;;;;;;;;;;;;;;;26.78;44.29;98393.09;2619053;54;20470;-66
2022/08/18 16:34:10;;;;;;;;;;;;;;;26.73;44.81;98387.78;2618953;54;19954;-65
2022/08/18 16:36:40;;;;;;;;;;;;;;;26.76;45.08;98389.09;2619241;39;19994;-65
2022/08/18 16:39:09;;;;;;;;;;;;;;;26.81;44.30;98378.09;2619318;54;20446;-66
2022/08/18 16:41:39;;;;;;;;;;;;;;;26.76;44.32;98389.88;2620132;54;19946;-67
2022/08/18 16:44:11;;;;;;;;;;;;;;;26.75;44.58;98391.00;2620726;54;19945;-67
2022/08/18 16:46:40;;;;;;;;;;;;;;;26.71;44.49;98390.00;2621033;54;19945;-65
2022/08/18 16:49:10;;;;;;;;;;;;;;;26.68;44.84;98385.19;2621378;54;19946;-66
2022/08/18 16:51:39;;;;;;;;;;;;;;;26.70;44.90;98391.13;2618648;54;19954;-65
2022/08/18 16:54:09;;;;;;;;;;;;;;;26.67;44.91;98391.75;2620337;54;19939;-67
2022/08/18 16:56:38;;;;;;;;;;;;;;;26.55;44.71;98388.78;2619336;54;19939;-66
2022/08/18 17:04:34;;;;;;;;;;;;;;;26.61;45.13;98388.34;2619591;54;19994;-66
2022/08/18 17:07:06;;;;;;;;;;;;;;;26.40;44.51;98387.97;2619336;54;20042;-65
2022/08/18 17:09:36;;;;;;;;;;;;;;;26.34;44.48;98386.50;2619961;39;20458;-65
2022/08/18 17:12:06;;;;;;;;;;;;;;;26.24;44.75;98385.94;2619608;54;19951;-66
2022/08/18 17:14:38;;;;;;;;;;;;;;;26.24;45.16;98384.03;2618987;54;19965;-67
2022/08/18 17:17:07;;;;;;;;;;;;;;;26.19;45.37;98379.53;2619518;54;19946;-67
2022/08/18 17:19:37;;;;;;;;;;;;;;;26.17;45.56;98378.25;2619465;54;19942;-67
2022/08/18 17:22:07;;;;;;;;;;;;;;;26.08;45.74;98372.72;2618922;54;19953;-66
2022/08/18 17:24:37;;;;;;;;;;;;;;;26.08;45.16;98374.63;2618650;54;19947;-67
2022/08/18 17:27:17;;;;;;;;;;;;;;;26.06;45.45;98372.25;2619257;54;19945;-65
2022/08/18 17:30:04;;;;;;;;;;;;;;;25.96;45.02;98377.84;2619118;54;19950;-67
2022/08/18 17:32:38;;;;;;;;;;;;;;;25.84;45.21;98378.41;2619853;39;20349;-66
2022/08/18 17:35:12;;;;;;;;;;;;;;;25.79;45.50;98375.78;2618781;47;19938;-67
2022/08/18 17:37:50;;;;;;;;;;;;;;;25.84;45.85;98380.28;2619847;39;20304;-66
2022/08/18 17:40:23;;;;;;;;;;;;;;;25.84;45.22;98385.69;2619864;54;20423;-66
2022/08/18 17:42:58;;;;;;;;;;;;;;;25.80;45.59;98382.00;2619801;54;19946;-67
2022/08/18 17:45:33;;;;;;;;;;;;;;;25.70;45.48;98378.38;2623396;54;20050;-66
2022/08/18 17:48:07;;;;;;;;;;;;;;;25.67;45.53;98381.66;2624196;54;19950;-66
2022/08/18 17:53:23;;;;;;;;;;;;;;;25.57;45.31;98381.88;2619555;54;19945;-67
2022/08/18 17:55:58;;;;;;;;;;;;;;;25.49;45.50;98385.28;2619373;54;19939;-66
2022/08/18 17:58:32;;;;;;;;;;;;;;;25.38;46.42;98386.59;2618910;54;19952;-66
2022/08/18 18:01:04;;;;;;;;;;;;;;;25.17;46.67;98378.84;2622174;39;20354;-65
2022/08/18 18:03:34;;;;;;;;;;;;;;;25.03;47.65;98388.81;2622001;54;19946;-69